createdAt,value
2022-09-16T00:00:59.968Z,14.05
2022-09-16T00:01:59.993Z,14.04
2022-09-16T00:02:59.901Z,14.04
2022-09-16T00:03:59.880Z,14.00
2022-09-16T00:04:59.880Z,14.00
2022-09-16T00:05:59.860Z,14.03
2022-09-16T00:06:59.850Z,14.04
2022-09-16T00:07:59.859Z,14.03
2022-09-16T00:08:59.830Z,14.03
2022-09-16T00:09:59.818Z,14.03
2022-09-16T00:10:59.810Z,14.00
2022-09-16T00:11:59.811Z,14.00
2022-09-16T00:13:06.858Z,13.96
2022-09-16T00:13:59.769Z,13.96
2022-09-16T00:14:59.765Z,13.93
2022-09-16T00:15:59.780Z,13.92
2022-09-16T00:16:59.737Z,13.90
2022-09-16T00:17:59.728Z,13.90
2022-09-16T00:18:59.754Z,13.90
2022-09-16T00:19:59.699Z,13.87
2022-09-16T00:20:59.697Z,13.87
2022-09-16T00:21:59.678Z,13.83
2022-09-16T00:22:59.668Z,13.81
2022-09-16T00:23:59.657Z,13.83
2022-09-16T00:24:59.673Z,13.81
2022-09-16T00:25:59.629Z,13.85
2022-09-16T00:26:59.627Z,13.85
2022-09-16T00:27:59.608Z,13.83
2022-09-16T00:28:59.599Z,13.81
2022-09-16T00:29:59.587Z,13.81
2022-09-16T00:30:59.598Z,13.79
2022-09-16T00:31:59.558Z,13.78
2022-09-16T00:32:59.559Z,13.78
2022-09-16T00:33:59.542Z,13.79
2022-09-16T00:34:59.530Z,13.79
2022-09-16T00:35:59.518Z,13.79
2022-09-16T00:36:59.530Z,13.78
2022-09-16T00:37:59.497Z,13.79
2022-09-16T00:38:59.489Z,13.79
2022-09-16T00:39:59.516Z,13.78
2022-09-16T00:40:59.467Z,13.77
2022-09-16T00:41:59.470Z,13.74
2022-09-16T00:42:59.448Z,13.71
2022-09-16T00:43:59.442Z,13.70
2022-09-16T00:44:59.419Z,13.70
2022-09-16T00:45:59.400Z,13.70
2022-09-16T00:46:59.477Z,13.68
2022-09-16T00:47:59.409Z,13.67
2022-09-16T00:48:59.369Z,13.65
2022-09-16T00:49:59.365Z,13.65
2022-09-16T00:50:59.351Z,13.60
2022-09-16T00:51:59.337Z,13.59
2022-09-16T00:52:59.331Z,13.54
2022-09-16T00:53:59.330Z,13.53
2022-09-16T00:54:59.321Z,13.50
2022-09-16T00:55:59.288Z,13.49
2022-09-16T00:56:59.290Z,13.47
2022-09-16T00:57:59.260Z,13.46
2022-09-16T00:58:59.280Z,13.44
2022-09-16T00:59:59.249Z,13.42
2022-09-16T01:00:59.285Z,13.41
2022-09-16T01:01:59.277Z,13.39
2022-09-16T01:02:59.221Z,13.37
2022-09-16T01:03:59.199Z,13.35
2022-09-16T01:04:59.208Z,13.35
2022-09-16T01:05:59.180Z,13.31
2022-09-16T01:06:59.169Z,13.30
2022-09-16T01:07:59.150Z,13.25
2022-09-16T01:08:59.141Z,13.25
2022-09-16T01:09:59.151Z,13.23
2022-09-16T01:10:59.129Z,13.23
2022-09-16T01:11:59.109Z,13.22
2022-09-16T01:12:59.101Z,13.20
2022-09-16T01:13:59.081Z,13.18
2022-09-16T01:14:59.071Z,13.16
2022-09-16T01:15:59.118Z,13.18
2022-09-16T01:16:59.051Z,13.18
2022-09-16T01:17:59.041Z,13.19
2022-09-16T01:18:59.031Z,13.19
2022-09-16T01:19:59.012Z,13.18
2022-09-16T01:20:59.009Z,13.16
2022-09-16T01:21:59.004Z,13.15
2022-09-16T01:22:58.982Z,13.13
2022-09-16T01:23:58.962Z,13.11
2022-09-16T01:24:58.961Z,13.11
2022-09-16T01:25:58.942Z,13.12
2022-09-16T01:26:58.961Z,13.11
2022-09-16T01:27:58.921Z,13.11
2022-09-16T01:28:58.912Z,13.11
2022-09-16T01:29:58.900Z,13.12
2022-09-16T01:30:58.935Z,13.11
2022-09-16T01:31:58.883Z,13.12
2022-09-16T01:32:58.893Z,13.12
2022-09-16T01:33:58.852Z,13.11
2022-09-16T01:34:58.851Z,13.12
2022-09-16T01:35:58.831Z,13.15
2022-09-16T01:36:58.831Z,13.13
2022-09-16T01:37:58.802Z,13.13
2022-09-16T01:38:58.849Z,13.13
2022-09-16T01:39:58.815Z,13.16
2022-09-16T01:40:58.770Z,13.18
2022-09-16T01:41:58.761Z,13.19
2022-09-16T01:42:58.742Z,13.20
2022-09-16T01:43:58.743Z,13.20
2022-09-16T01:44:58.742Z,13.19
2022-09-16T01:45:58.713Z,13.18
2022-09-16T01:46:58.763Z,13.18
2022-09-16T01:47:58.693Z,13.18
2022-09-16T01:48:58.681Z,13.20
2022-09-16T01:49:58.671Z,13.22
2022-09-16T01:50:58.671Z,13.22
2022-09-16T01:51:58.642Z,13.22
2022-09-16T01:52:58.642Z,13.20
2022-09-16T01:53:58.622Z,13.20
2022-09-16T01:54:58.611Z,13.23
2022-09-16T01:55:58.615Z,13.23
2022-09-16T01:56:58.592Z,13.25
2022-09-16T01:57:58.572Z,13.22
2022-09-16T01:58:58.563Z,13.20
2022-09-16T01:59:58.552Z,13.20
2022-09-16T02:00:58.542Z,13.19
2022-09-16T02:01:58.643Z,13.19
2022-09-16T02:02:58.570Z,13.22
2022-09-16T02:03:58.503Z,13.22
2022-09-16T02:04:58.494Z,13.20
2022-09-16T02:05:58.481Z,13.22
2022-09-16T02:06:58.473Z,13.20
2022-09-16T02:07:58.473Z,13.20
2022-09-16T02:08:58.451Z,13.20
2022-09-16T02:09:58.446Z,13.19
2022-09-16T02:10:58.426Z,13.18
2022-09-16T02:11:58.410Z,13.19
2022-09-16T02:12:58.424Z,13.16
2022-09-16T02:13:58.394Z,13.15
2022-09-16T02:14:58.384Z,13.12
2022-09-16T02:15:58.383Z,13.12
2022-09-16T02:16:58.369Z,13.09
2022-09-16T02:17:58.343Z,13.08
2022-09-16T02:18:58.354Z,13.05
2022-09-16T02:19:58.321Z,13.04
2022-09-16T02:20:58.316Z,13.03
2022-09-16T02:21:58.293Z,13.03
2022-09-16T02:22:58.293Z,13.03
2022-09-16T02:23:58.273Z,13.00
2022-09-16T02:24:58.292Z,13.00
2022-09-16T02:25:58.244Z,12.98
2022-09-16T02:26:58.242Z,12.97
2022-09-16T02:27:58.233Z,12.94
2022-09-16T02:28:58.222Z,12.94
2022-09-16T02:29:58.212Z,12.93
2022-09-16T02:30:58.265Z,12.93
2022-09-16T02:31:58.182Z,12.91
2022-09-16T02:32:58.175Z,12.93
2022-09-16T02:33:58.163Z,12.93
2022-09-16T02:34:58.155Z,12.94
2022-09-16T02:35:58.143Z,12.98
2022-09-16T02:36:58.153Z,12.98
2022-09-16T02:37:58.126Z,12.97
2022-09-16T02:38:58.119Z,12.95
2022-09-16T02:39:58.165Z,12.93
2022-09-16T02:40:58.083Z,12.91
2022-09-16T02:41:58.065Z,12.91
2022-09-16T02:42:58.083Z,12.87
2022-09-16T02:43:58.054Z,12.87
2022-09-16T02:44:58.037Z,12.90
2022-09-16T02:45:58.042Z,12.93
2022-09-16T02:46:58.015Z,12.95
2022-09-16T02:47:57.994Z,12.97
2022-09-16T02:48:58.015Z,12.95
2022-09-16T02:49:57.974Z,12.97
2022-09-16T02:50:57.965Z,12.97
2022-09-16T02:51:57.954Z,12.97
2022-09-16T02:52:57.944Z,12.98
2022-09-16T02:53:57.925Z,13.03
2022-09-16T02:54:57.944Z,13.05
2022-09-16T02:55:57.906Z,13.05
2022-09-16T02:56:57.904Z,13.04
2022-09-16T02:57:57.885Z,13.04
2022-09-16T02:58:57.875Z,13.04
2022-09-16T02:59:57.855Z,13.01
2022-09-16T03:00:57.874Z,12.98
2022-09-16T03:01:57.912Z,12.98
2022-09-16T03:02:57.890Z,12.95
2022-09-16T03:03:57.822Z,12.94
2022-09-16T03:04:57.805Z,12.93
2022-09-16T03:05:57.793Z,12.91
2022-09-16T03:06:57.807Z,12.90
2022-09-16T03:07:57.766Z,12.86
2022-09-16T03:08:57.763Z,12.83
2022-09-16T03:09:57.756Z,12.80
2022-09-16T03:10:57.736Z,12.79
2022-09-16T03:11:57.753Z,12.76
2022-09-16T03:12:57.715Z,12.76
2022-09-16T03:13:57.696Z,12.78
2022-09-16T03:14:57.695Z,12.78
2022-09-16T03:15:57.728Z,12.76
2022-09-16T03:16:57.673Z,12.76
2022-09-16T03:17:57.676Z,12.76
2022-09-16T03:18:57.646Z,12.73
2022-09-16T03:19:57.626Z,12.72
2022-09-16T03:20:57.633Z,12.70
2022-09-16T03:21:57.606Z,12.68
2022-09-16T03:22:57.606Z,12.70
2022-09-16T03:23:57.606Z,12.72
2022-09-16T03:24:57.577Z,12.68
2022-09-16T03:25:57.567Z,12.64
2022-09-16T03:26:57.557Z,12.61
2022-09-16T03:27:57.537Z,12.61
2022-09-16T03:28:57.535Z,12.61
2022-09-16T03:29:57.536Z,12.61
2022-09-16T03:30:57.558Z,12.61
2022-09-16T03:31:57.490Z,12.61
2022-09-16T03:32:57.486Z,12.58
2022-09-16T03:33:57.467Z,12.57
2022-09-16T03:34:57.486Z,12.57
2022-09-16T03:35:57.446Z,12.58
2022-09-16T03:36:57.437Z,12.57
2022-09-16T03:37:57.437Z,12.58
2022-09-16T03:38:57.416Z,12.58
2022-09-16T03:39:57.456Z,12.58
2022-09-16T03:40:57.486Z,12.60
2022-09-16T03:41:57.378Z,12.64
2022-09-16T03:42:57.366Z,12.64
2022-09-16T03:44:01.623Z,12.64
2022-09-16T03:44:58.347Z,12.64
2022-09-16T03:45:57.348Z,12.61
2022-09-16T03:46:57.347Z,12.60
2022-09-16T03:47:57.317Z,12.58
2022-09-16T03:48:57.305Z,12.57
2022-09-16T03:49:57.300Z,12.54
2022-09-16T03:50:57.277Z,12.53
2022-09-16T03:51:57.265Z,12.54
2022-09-16T03:52:57.277Z,12.54
2022-09-16T03:53:57.237Z,12.53
2022-09-16T03:54:57.248Z,12.54
2022-09-16T03:55:57.217Z,12.53
2022-09-16T03:56:57.208Z,12.50
2022-09-16T03:57:57.189Z,12.53
2022-09-16T03:58:57.208Z,12.53
2022-09-16T03:59:57.168Z,12.50
2022-09-16T04:00:57.167Z,12.50
2022-09-16T04:01:57.184Z,12.49
2022-09-16T04:02:57.176Z,12.49
2022-09-16T04:03:57.128Z,12.46
2022-09-16T04:04:57.139Z,12.46
2022-09-16T04:05:57.099Z,12.42
2022-09-16T04:06:57.098Z,12.36
2022-09-16T04:07:57.078Z,12.32
2022-09-16T04:08:57.069Z,12.28
2022-09-16T04:09:57.069Z,12.27
2022-09-16T04:10:57.074Z,12.24
2022-09-16T04:11:57.038Z,12.24
2022-09-16T04:12:57.028Z,12.24
2022-09-16T04:13:57.008Z,12.22
2022-09-16T04:14:56.998Z,12.21
2022-09-16T04:15:57.025Z,12.22
2022-09-16T04:16:56.997Z,12.22
2022-09-16T04:17:56.966Z,12.22
2022-09-16T04:18:56.957Z,12.21
2022-09-16T04:19:56.938Z,12.22
2022-09-16T04:20:56.937Z,12.20
2022-09-16T04:21:56.938Z,12.17
2022-09-16T04:22:56.909Z,12.17
2022-09-16T04:23:56.899Z,12.15
2022-09-16T04:24:56.889Z,12.15
2022-09-16T04:25:56.879Z,12.15
2022-09-16T04:26:56.868Z,12.21
2022-09-16T04:27:56.868Z,12.22
2022-09-16T04:28:56.838Z,12.22
2022-09-16T04:29:56.829Z,12.25
2022-09-16T04:30:56.862Z,12.25
2022-09-16T04:31:56.810Z,12.22
2022-09-16T04:32:56.800Z,12.22
2022-09-16T04:33:56.799Z,12.21
2022-09-16T04:34:56.778Z,12.21
2022-09-16T04:35:56.759Z,12.22
2022-09-16T04:36:56.748Z,12.20
2022-09-16T04:37:56.737Z,12.18
2022-09-16T04:38:56.729Z,12.18
2022-09-16T04:39:59.828Z,12.15
2022-09-16T04:40:57.707Z,12.17
2022-09-16T04:41:56.690Z,12.13
2022-09-16T04:42:56.681Z,12.10
2022-09-16T04:43:56.669Z,12.06
2022-09-16T04:44:56.709Z,12.03
2022-09-16T04:45:56.685Z,12.03
2022-09-16T04:46:56.639Z,12.03
2022-09-16T04:47:56.638Z,12.00
2022-09-16T04:48:56.610Z,12.00
2022-09-16T04:49:56.599Z,11.99
2022-09-16T04:50:56.609Z,12.00
2022-09-16T04:51:56.578Z,11.97
2022-09-16T04:52:56.571Z,11.94
2022-09-16T04:53:56.553Z,11.88
2022-09-16T04:54:58.301Z,11.87
2022-09-16T04:55:56.530Z,11.88
2022-09-16T04:56:56.547Z,11.90
2022-09-16T04:57:56.508Z,11.88
2022-09-16T04:58:56.528Z,11.87
2022-09-16T04:59:56.480Z,11.86
2022-09-16T05:00:56.479Z,11.84
2022-09-16T05:01:56.508Z,11.80
2022-09-16T05:02:56.541Z,11.75
2022-09-16T05:03:56.438Z,11.68
2022-09-16T05:04:56.430Z,11.62
2022-09-16T05:05:56.410Z,11.60
2022-09-16T05:06:56.409Z,11.60
2022-09-16T05:07:56.390Z,11.62
2022-09-16T05:08:56.409Z,11.59
2022-09-16T05:09:56.373Z,11.55
2022-09-16T05:10:56.360Z,11.54
2022-09-16T05:11:56.398Z,11.50
2022-09-16T05:12:56.340Z,11.47
2022-09-16T05:13:56.395Z,11.45
2022-09-16T05:14:56.340Z,11.44
2022-09-16T05:15:56.343Z,11.41
2022-09-16T05:16:56.298Z,11.43
2022-09-16T05:17:56.280Z,11.40
2022-09-16T05:18:56.269Z,11.40
2022-09-16T05:19:56.259Z,11.40
2022-09-16T05:20:56.280Z,11.36
2022-09-16T05:21:56.241Z,11.33
2022-09-16T05:22:56.220Z,11.30
2022-09-16T05:23:56.295Z,11.30
2022-09-16T05:24:56.200Z,11.35
2022-09-16T05:25:56.182Z,11.35
2022-09-16T05:26:56.190Z,11.40
2022-09-16T05:27:56.160Z,11.41
2022-09-16T05:28:56.161Z,11.43
2022-09-16T05:29:56.140Z,11.51
2022-09-16T05:30:56.186Z,11.54
2022-09-16T05:31:56.141Z,11.63
2022-09-16T05:32:56.110Z,11.66
2022-09-16T05:33:56.090Z,11.69
2022-09-16T05:34:56.090Z,11.72
2022-09-16T05:35:56.071Z,11.77
2022-09-16T05:36:56.061Z,11.80
2022-09-16T05:37:56.092Z,11.83
2022-09-16T05:39:21.114Z,11.84
2022-09-16T05:39:57.075Z,11.88
2022-09-16T05:40:56.018Z,11.91
2022-09-16T05:41:56.013Z,12.00
2022-09-16T05:42:55.994Z,12.02
2022-09-16T05:43:56.011Z,12.07
2022-09-16T05:44:55.981Z,12.10
2022-09-16T05:45:55.978Z,12.13
2022-09-16T05:46:55.952Z,12.10
2022-09-16T05:47:55.932Z,12.12
2022-09-16T05:48:55.921Z,12.15
2022-09-16T05:49:55.922Z,12.20
2022-09-16T05:50:55.911Z,12.27
2022-09-16T05:51:55.891Z,12.36
2022-09-16T05:52:55.911Z,12.45
2022-09-16T05:53:55.917Z,12.54
2022-09-16T05:54:55.880Z,12.62
2022-09-16T05:55:55.852Z,12.70
2022-09-16T05:56:55.831Z,12.79
2022-09-16T05:57:55.820Z,12.86
2022-09-16T05:58:55.812Z,12.93
2022-09-16T05:59:55.791Z,12.98
2022-09-16T06:00:55.801Z,13.03
2022-09-16T06:01:55.833Z,13.09
2022-09-16T06:02:55.819Z,13.13
2022-09-16T06:03:55.822Z,13.16
2022-09-16T06:04:55.743Z,13.20
2022-09-16T06:05:55.764Z,13.22
2022-09-16T06:06:55.721Z,13.25
2022-09-16T06:07:55.702Z,13.30
2022-09-16T06:08:55.715Z,13.37
2022-09-16T06:09:55.681Z,13.38
2022-09-16T06:10:55.672Z,13.42
2022-09-16T06:12:01.660Z,13.44
2022-09-16T06:14:05.584Z,13.50
2022-09-16T06:15:05.573Z,13.53
2022-09-16T06:16:06.309Z,13.57
2022-09-16T06:17:05.563Z,13.60
2022-09-16T06:18:06.600Z,13.60
2022-09-16T06:19:05.555Z,13.62
2022-09-16T06:20:05.513Z,13.65
2022-09-16T06:21:05.513Z,13.65
2022-09-16T06:22:05.513Z,13.68
2022-09-16T06:23:05.493Z,13.71
2022-09-16T06:24:05.531Z,13.75
2022-09-16T06:25:05.563Z,13.78
2022-09-16T06:26:05.444Z,13.81
2022-09-16T06:27:05.445Z,13.87
2022-09-16T06:28:05.453Z,13.87
2022-09-16T06:29:05.742Z,13.90
2022-09-16T06:30:05.411Z,13.97
2022-09-16T06:31:05.477Z,14.05
2022-09-16T06:32:05.484Z,14.04
2022-09-16T06:33:05.374Z,14.05
2022-09-16T06:34:05.428Z,14.03
2022-09-16T06:35:05.358Z,14.05
2022-09-16T06:36:05.343Z,14.08
2022-09-16T06:37:05.332Z,14.07
2022-09-16T06:38:05.317Z,14.10
2022-09-16T06:39:05.313Z,14.10
2022-09-16T06:40:05.386Z,14.07
2022-09-16T06:41:05.285Z,14.05
2022-09-16T06:42:05.275Z,14.04
2022-09-16T06:43:05.267Z,13.99
2022-09-16T06:44:05.256Z,13.97
2022-09-16T06:45:05.245Z,13.97
2022-09-16T06:46:05.285Z,13.96
2022-09-16T06:47:05.215Z,13.95
2022-09-16T06:48:05.204Z,13.92
2022-09-16T06:49:06.161Z,13.87
2022-09-16T06:50:05.183Z,13.86
2022-09-16T06:51:05.175Z,13.86
2022-09-16T06:52:05.212Z,13.90
2022-09-16T06:53:05.155Z,14.00
2022-09-16T06:54:05.137Z,14.14
2022-09-16T06:55:05.135Z,14.32
2022-09-16T06:56:05.117Z,14.51
2022-09-16T06:57:08.558Z,14.77
2022-09-16T06:58:06.116Z,15.72
2022-09-16T06:59:05.085Z,17.15
2022-09-16T07:00:05.077Z,18.25
2022-09-16T07:01:05.114Z,18.58
2022-09-16T07:02:05.117Z,19.55
2022-09-16T07:03:05.046Z,20.21
2022-09-16T07:04:05.057Z,19.95
2022-09-16T07:05:05.017Z,19.45
2022-09-16T07:06:05.009Z,18.99
2022-09-16T07:07:09.653Z,18.44
2022-09-16T07:08:05.985Z,18.37
2022-09-16T07:09:04.976Z,17.92
2022-09-16T07:10:04.977Z,17.48
2022-09-16T07:11:04.989Z,16.86
2022-09-16T07:12:04.937Z,16.57
2022-09-16T07:13:04.927Z,16.29
2022-09-16T07:14:04.913Z,16.12
2022-09-16T07:15:04.906Z,16.08
2022-09-16T07:16:13.713Z,16.05
2022-09-16T07:17:05.904Z,16.04
2022-09-16T07:18:04.867Z,16.26
2022-09-16T07:19:04.977Z,17.02
2022-09-16T07:20:04.850Z,17.86
2022-09-16T07:21:04.878Z,17.97
2022-09-16T07:22:04.829Z,17.90
2022-09-16T07:23:04.819Z,17.63
2022-09-16T07:24:04.808Z,17.31
2022-09-16T07:25:04.796Z,16.94
2022-09-16T07:26:04.779Z,16.76
2022-09-16T07:27:04.789Z,16.50
2022-09-16T07:28:04.765Z,16.32
2022-09-16T07:29:04.751Z,16.26
2022-09-16T07:30:08.862Z,16.21
2022-09-16T07:31:04.815Z,16.17
2022-09-16T07:32:04.739Z,16.17
2022-09-16T07:33:04.710Z,16.15
2022-09-16T07:34:05.056Z,16.17
2022-09-16T07:35:04.679Z,16.15
2022-09-16T07:36:04.680Z,16.04
2022-09-16T07:37:04.661Z,16.00
2022-09-16T07:38:04.672Z,16.00
2022-09-16T07:39:04.634Z,15.97
2022-09-16T07:40:04.648Z,15.97
2022-09-16T07:41:04.613Z,16.02
2022-09-16T07:42:06.205Z,16.04
2022-09-16T07:43:04.592Z,16.04
2022-09-16T07:44:04.600Z,16.04
2022-09-16T07:45:04.571Z,15.98
2022-09-16T07:46:04.621Z,15.92
2022-09-16T07:47:04.561Z,15.76
2022-09-16T07:48:04.532Z,15.73
2022-09-16T07:49:04.525Z,15.76
2022-09-16T07:50:04.592Z,15.77
2022-09-16T07:51:04.503Z,15.76
2022-09-16T07:52:04.481Z,15.79
2022-09-16T07:53:04.512Z,15.83
2022-09-16T07:54:04.469Z,15.91
2022-09-16T07:55:04.460Z,16.15
2022-09-16T07:56:04.462Z,16.43
2022-09-16T07:57:04.432Z,16.89
2022-09-16T07:58:04.425Z,16.83
2022-09-16T07:59:04.419Z,17.09
2022-09-16T08:00:04.394Z,17.86
2022-09-16T08:01:05.182Z,19.08
2022-09-16T08:02:04.467Z,20.10
2022-09-16T08:03:04.437Z,20.09
2022-09-16T08:04:04.357Z,19.44
2022-09-16T08:05:04.344Z,19.41
2022-09-16T08:06:04.333Z,19.71
2022-09-16T08:07:04.345Z,19.88
2022-09-16T08:08:04.317Z,20.25
2022-09-16T08:09:21.077Z,20.87
2022-09-16T08:10:05.284Z,21.12
2022-09-16T08:11:04.284Z,20.78
2022-09-16T08:12:04.297Z,21.03
2022-09-16T08:13:04.255Z,21.37
2022-09-16T08:14:04.250Z,21.67
2022-09-16T08:15:04.236Z,21.83
2022-09-16T08:16:04.215Z,22.11
2022-09-16T08:17:04.206Z,22.54
2022-09-16T08:18:04.225Z,22.50
2022-09-16T08:19:04.186Z,21.72
2022-09-16T08:20:04.208Z,21.43
2022-09-16T08:21:04.164Z,21.05
2022-09-16T08:22:04.166Z,21.66
2022-09-16T08:23:04.145Z,22.13
2022-09-16T08:24:04.177Z,22.57
2022-09-16T08:25:04.120Z,22.72
2022-09-16T08:26:04.111Z,22.80
2022-09-16T08:27:04.097Z,22.68
2022-09-16T08:28:04.090Z,23.36
2022-09-16T08:29:09.065Z,23.93
2022-09-16T08:30:05.090Z,24.18
2022-09-16T08:31:04.049Z,24.11
2022-09-16T08:32:04.134Z,22.98
2022-09-16T08:33:04.029Z,22.00
2022-09-16T08:34:04.019Z,21.42
2022-09-16T08:35:04.041Z,21.00
2022-09-16T08:36:04.003Z,20.62
2022-09-16T08:37:03.989Z,20.25
2022-09-16T08:38:03.980Z,19.86
2022-09-16T08:39:03.981Z,19.59
2022-09-16T08:40:04.076Z,19.19
2022-09-16T08:41:03.983Z,18.96
2022-09-16T08:42:03.932Z,18.65
2022-09-16T08:43:03.922Z,18.43
2022-09-16T08:44:03.912Z,18.37
2022-09-16T08:45:03.902Z,18.08
2022-09-16T08:46:03.924Z,17.98
2022-09-16T08:47:03.895Z,17.78
2022-09-16T08:48:03.863Z,17.80
2022-09-16T08:49:03.892Z,17.85
2022-09-16T08:50:03.842Z,17.82
2022-09-16T08:51:03.833Z,17.95
2022-09-16T08:52:03.822Z,18.19
2022-09-16T08:53:03.833Z,18.35
2022-09-16T08:54:03.804Z,18.47
2022-09-16T08:55:03.783Z,18.56
2022-09-16T08:56:03.775Z,18.60
2022-09-16T08:57:03.773Z,18.59
2022-09-16T08:58:03.774Z,18.96
2022-09-16T08:59:03.745Z,19.39
2022-09-16T09:00:03.739Z,20.04
2022-09-16T09:01:03.866Z,20.51
2022-09-16T09:02:08.802Z,20.92
2022-09-16T09:03:04.766Z,20.88
2022-09-16T09:04:03.696Z,21.35
2022-09-16T09:05:03.677Z,21.82
2022-09-16T09:06:03.673Z,22.00
2022-09-16T09:07:03.656Z,22.29
2022-09-16T09:08:03.648Z,22.44
2022-09-16T09:09:03.656Z,22.47
2022-09-16T09:10:07.104Z,22.53
2022-09-16T09:11:04.609Z,22.54
2022-09-16T09:12:03.597Z,22.54
2022-09-16T09:13:03.683Z,23.06
2022-09-16T09:14:03.578Z,23.10
2022-09-16T09:15:03.584Z,22.75
2022-09-16T09:16:03.607Z,22.90
2022-09-16T09:17:03.537Z,22.18
2022-09-16T09:18:03.540Z,22.17
2022-09-16T09:19:03.519Z,22.33
2022-09-16T09:20:03.546Z,22.48
2022-09-16T09:21:03.503Z,22.33
2022-09-16T09:22:03.489Z,21.76
2022-09-16T09:23:03.479Z,21.02
2022-09-16T09:24:03.469Z,20.25
2022-09-16T09:25:03.460Z,19.73
2022-09-16T09:26:03.532Z,19.58
2022-09-16T09:27:03.432Z,19.39
2022-09-16T09:28:03.427Z,19.34
2022-09-16T09:29:03.413Z,19.21
2022-09-16T09:30:03.411Z,19.14
2022-09-16T09:31:06.335Z,19.16
2022-09-16T09:32:04.409Z,19.39
2022-09-16T09:33:03.475Z,19.56
2022-09-16T09:34:03.366Z,19.77
2022-09-16T09:35:03.343Z,19.94
2022-09-16T09:36:03.341Z,20.16
2022-09-16T09:37:03.342Z,20.16
2022-09-16T09:38:03.312Z,20.18
2022-09-16T09:39:03.326Z,20.16
2022-09-16T09:40:03.389Z,20.25
2022-09-16T09:41:03.274Z,20.48
2022-09-16T09:42:03.272Z,20.66
2022-09-16T09:43:03.300Z,20.48
2022-09-16T09:44:03.279Z,20.37
2022-09-16T09:45:03.255Z,20.06
2022-09-16T09:46:03.263Z,19.77
2022-09-16T09:47:03.278Z,19.54
2022-09-16T09:48:03.207Z,19.19
2022-09-16T09:49:03.256Z,18.78
2022-09-16T09:50:03.194Z,18.52
2022-09-16T09:51:03.167Z,18.28
2022-09-16T09:52:03.154Z,18.19
2022-09-16T09:53:03.143Z,18.16
2022-09-16T09:54:03.134Z,17.86
2022-09-16T09:55:03.145Z,17.83
2022-09-16T09:56:03.114Z,17.72
2022-09-16T09:57:03.095Z,17.42
2022-09-16T09:58:03.094Z,17.20
2022-09-16T09:59:03.077Z,17.27
2022-09-16T10:00:03.065Z,17.33
2022-09-16T10:01:03.088Z,17.38
2022-09-16T10:02:03.135Z,17.49
2022-09-16T10:03:03.026Z,17.63
2022-09-16T10:04:03.035Z,17.70
2022-09-16T10:05:03.006Z,17.76
2022-09-16T10:06:03.019Z,17.85
2022-09-16T10:08:02.975Z,17.90
2022-09-16T10:09:02.976Z,17.98
2022-09-16T10:10:02.956Z,18.05
2022-09-16T10:11:02.937Z,18.00
2022-09-16T10:12:02.953Z,18.15
2022-09-16T10:13:02.915Z,18.38
2022-09-16T10:14:02.907Z,18.53
2022-09-16T10:15:02.888Z,18.60
2022-09-16T10:16:02.915Z,18.78
2022-09-16T10:17:02.868Z,18.89
2022-09-16T10:18:02.875Z,18.95
2022-09-16T10:19:02.853Z,18.84
2022-09-16T10:20:02.837Z,18.80
2022-09-16T10:21:02.820Z,18.74
2022-09-16T10:22:02.817Z,18.75
2022-09-16T10:23:02.830Z,18.71
2022-09-16T10:24:02.788Z,18.68
2022-09-16T10:25:02.782Z,18.55
2022-09-16T10:26:02.769Z,18.53
2022-09-16T10:27:02.749Z,18.60
2022-09-16T10:28:02.759Z,18.68
2022-09-16T10:29:02.757Z,18.78
2022-09-16T10:30:02.734Z,18.77
2022-09-16T10:31:02.795Z,18.74
2022-09-16T10:32:02.734Z,18.66
2022-09-16T10:33:02.689Z,18.73
2022-09-16T10:34:02.689Z,18.78
2022-09-16T10:35:02.691Z,18.74
2022-09-16T10:36:02.659Z,18.74
2022-09-16T10:37:02.650Z,18.65
2022-09-16T10:38:02.643Z,18.60
2022-09-16T10:39:04.635Z,18.53
2022-09-16T10:40:02.654Z,18.62
2022-09-16T10:41:02.620Z,18.77
2022-09-16T10:42:02.600Z,18.81
2022-09-16T10:43:02.581Z,18.80
2022-09-16T10:44:02.571Z,18.78
2022-09-16T10:45:02.558Z,18.71
2022-09-16T10:46:02.624Z,18.70
2022-09-16T10:47:02.531Z,18.74
2022-09-16T10:48:05.025Z,18.83
2022-09-16T10:49:02.513Z,18.86
2022-09-16T10:50:02.501Z,18.88
2022-09-16T10:51:02.491Z,18.58
2022-09-16T10:52:02.542Z,18.31
2022-09-16T10:53:02.495Z,18.13
2022-09-16T10:54:02.463Z,18.03
2022-09-16T10:55:02.451Z,17.87
2022-09-16T10:56:02.443Z,17.82
2022-09-16T10:57:02.423Z,17.80
2022-09-16T10:58:02.496Z,17.65
2022-09-16T10:59:02.403Z,17.52
2022-09-16T11:00:02.393Z,17.68
2022-09-16T11:01:02.562Z,17.82
2022-09-16T11:02:02.502Z,17.95
2022-09-16T11:03:02.354Z,18.15
2022-09-16T11:04:05.189Z,18.38
2022-09-16T11:05:02.333Z,18.56
2022-09-16T11:06:02.324Z,18.77
2022-09-16T11:07:02.313Z,18.93
2022-09-16T11:08:02.302Z,19.16
2022-09-16T11:09:02.957Z,19.31
2022-09-16T11:10:02.288Z,19.36
2022-09-16T11:11:02.265Z,19.33
2022-09-16T11:12:02.660Z,19.37
2022-09-16T11:13:02.245Z,19.31
2022-09-16T11:14:02.233Z,19.24
2022-09-16T11:15:02.271Z,19.31
2022-09-16T11:16:02.299Z,19.31
2022-09-16T11:17:02.197Z,19.29
2022-09-16T11:18:02.185Z,19.18
2022-09-16T11:19:02.175Z,19.21
2022-09-16T11:20:02.185Z,19.21
2022-09-16T11:21:02.176Z,19.33
2022-09-16T11:22:02.147Z,19.37
2022-09-16T11:23:02.142Z,19.37
2022-09-16T11:24:02.128Z,19.29
2022-09-16T11:25:02.108Z,19.19
2022-09-16T11:26:02.096Z,19.21
2022-09-16T11:27:02.105Z,19.24
2022-09-16T11:28:02.087Z,19.18
2022-09-16T11:29:02.066Z,19.04
2022-09-16T11:30:02.058Z,18.88
2022-09-16T11:31:02.099Z,18.68
2022-09-16T11:32:02.068Z,18.55
2022-09-16T11:33:02.938Z,18.40
2022-09-16T11:34:02.346Z,18.15
2022-09-16T11:35:01.998Z,18.00
2022-09-16T11:36:01.987Z,17.83
2022-09-16T11:37:01.970Z,17.74
2022-09-16T11:38:01.988Z,17.71
2022-09-16T11:39:01.948Z,17.63
2022-09-16T11:40:02.022Z,17.59
2022-09-16T11:41:01.931Z,17.59
2022-09-16T11:42:01.919Z,17.48
2022-09-16T11:43:01.899Z,17.34
2022-09-16T11:44:01.918Z,17.27
2022-09-16T11:45:01.909Z,17.24
2022-09-16T11:46:01.869Z,17.12
2022-09-16T11:47:01.861Z,16.93
2022-09-16T11:48:01.849Z,16.90
2022-09-16T11:49:01.839Z,16.99
2022-09-16T11:50:01.841Z,17.11
2022-09-16T11:51:01.809Z,17.20
2022-09-16T11:52:01.813Z,17.20
2022-09-16T11:53:05.063Z,17.11
2022-09-16T11:54:02.238Z,16.99
2022-09-16T11:55:02.409Z,16.91
2022-09-16T11:56:01.760Z,16.91
2022-09-16T11:57:01.757Z,16.90
2022-09-16T11:58:01.741Z,16.86
2022-09-16T11:59:01.736Z,16.81
2022-09-16T12:00:01.730Z,16.78
2022-09-16T12:01:01.720Z,16.91
2022-09-16T12:02:01.734Z,17.06
2022-09-16T12:03:01.742Z,17.15
2022-09-16T12:04:01.670Z,17.19
2022-09-16T12:05:01.660Z,17.27
2022-09-16T12:06:01.651Z,17.30
2022-09-16T12:07:01.661Z,17.44
2022-09-16T12:08:01.629Z,17.54
2022-09-16T12:09:01.619Z,17.57
2022-09-16T12:10:01.611Z,17.71
2022-09-16T12:11:01.594Z,17.85
2022-09-16T12:12:01.592Z,18.01
2022-09-16T12:13:01.594Z,18.01
2022-09-16T12:14:08.747Z,18.07
2022-09-16T12:15:05.516Z,18.11
2022-09-16T12:16:01.552Z,18.22
2022-09-16T12:17:01.534Z,18.35
2022-09-16T12:18:01.525Z,18.40
2022-09-16T12:19:01.553Z,18.50
2022-09-16T12:20:01.503Z,18.44
2022-09-16T12:21:01.493Z,18.47
2022-09-16T12:22:01.478Z,18.44
2022-09-16T12:23:01.465Z,18.33
2022-09-16T12:24:01.454Z,18.34
2022-09-16T12:25:01.463Z,18.40
2022-09-16T12:26:01.437Z,18.37
2022-09-16T12:27:01.426Z,18.33
2022-09-16T12:28:01.417Z,18.34
2022-09-16T12:29:01.403Z,18.31
2022-09-16T12:30:01.405Z,18.26
2022-09-16T12:31:01.392Z,18.26
2022-09-16T12:32:01.365Z,18.35
2022-09-16T12:33:01.356Z,18.45
2022-09-16T12:34:01.345Z,18.47
2022-09-16T12:35:01.336Z,18.45
2022-09-16T12:36:01.369Z,18.45
2022-09-16T12:37:01.315Z,18.34
2022-09-16T12:38:01.295Z,18.23
2022-09-16T12:39:01.286Z,18.25
2022-09-16T12:40:01.306Z,18.33
2022-09-16T12:41:01.266Z,18.41
2022-09-16T12:42:01.288Z,18.41
2022-09-16T12:43:01.248Z,18.40
2022-09-16T12:44:11.184Z,18.40
2022-09-16T12:45:02.226Z,18.34
2022-09-16T12:46:01.258Z,18.38
2022-09-16T12:47:01.208Z,18.47
2022-09-16T12:48:01.210Z,18.59
2022-09-16T12:49:01.188Z,18.59
2022-09-16T12:50:01.167Z,18.56
2022-09-16T12:51:01.157Z,18.56
2022-09-16T12:52:01.387Z,18.55
2022-09-16T12:53:01.161Z,18.49
2022-09-16T12:54:01.128Z,18.41
2022-09-16T12:55:08.211Z,18.38